createdAt,value
2023-03-10T00:08:30.819Z,7.78
2023-03-10T00:18:56.752Z,7.55
2023-03-10T00:29:22.251Z,7.36
2023-03-10T00:39:51.375Z,7.32
2023-03-10T00:50:17.459Z,7.37
2023-03-10T01:00:45.032Z,7.40
2023-03-10T01:11:12.574Z,7.51
2023-03-10T01:21:39.962Z,7.66
2023-03-10T01:32:06.307Z,7.84
2023-03-10T01:42:33.079Z,8.04
2023-03-10T01:52:59.049Z,8.12
2023-03-10T02:03:27.384Z,8.06
2023-03-10T02:13:53.420Z,8.03
2023-03-10T02:24:28.607Z,8.01
2023-03-10T02:34:54.419Z,8.01
2023-03-10T02:45:20.468Z,8.02
2023-03-10T02:55:46.472Z,8.01
2023-03-10T03:06:12.952Z,8.11
2023-03-10T03:16:38.858Z,8.39
2023-03-10T03:27:04.740Z,8.45
2023-03-10T03:37:30.548Z,8.39
2023-03-10T03:47:56.764Z,8.30
2023-03-10T03:58:22.754Z,8.22
2023-03-10T04:08:49.918Z,8.18
2023-03-10T04:19:15.670Z,7.90
2023-03-10T04:29:41.623Z,7.69
2023-03-10T04:40:09.759Z,7.40
2023-03-10T04:50:35.418Z,7.13
2023-03-10T05:01:03.592Z,7.05
2023-03-10T05:11:29.769Z,7.00
2023-03-10T05:21:55.783Z,6.98
2023-03-10T05:32:21.370Z,6.80
2023-03-10T05:42:47.164Z,6.84
2023-03-10T05:53:13.034Z,6.80
2023-03-10T06:03:39.533Z,6.69
2023-03-10T06:14:05.567Z,6.54
2023-03-10T06:24:32.143Z,6.51
2023-03-10T06:34:59.633Z,6.53
2023-03-10T06:45:25.551Z,6.81
2023-03-10T06:56:01.594Z,7.42
2023-03-10T07:06:29.026Z,8.12
2023-03-10T07:16:55.086Z,8.57
2023-03-10T07:27:20.679Z,8.88
2023-03-10T07:37:46.261Z,9.28
2023-03-10T07:48:12.497Z,9.85
2023-03-10T07:58:39.574Z,10.49
2023-03-10T08:09:05.826Z,10.91
2023-03-10T08:19:31.453Z,11.34
2023-03-10T08:29:57.069Z,11.74
2023-03-10T08:40:22.956Z,12.06
2023-03-10T08:50:49.135Z,12.38
2023-03-10T09:01:16.393Z,12.43
2023-03-10T09:11:43.136Z,12.42
2023-03-10T09:22:09.106Z,12.51
2023-03-10T09:32:34.952Z,12.76
2023-03-10T09:43:04.194Z,13.18
2023-03-10T09:53:52.153Z,13.66
2023-03-10T10:04:23.039Z,13.87
2023-03-10T10:14:57.152Z,14.17
2023-03-10T10:25:26.170Z,14.34
2023-03-10T10:36:03.392Z,14.48
2023-03-10T10:46:30.936Z,14.48
2023-03-10T10:56:58.353Z,14.59
2023-03-10T11:07:28.293Z,14.79
2023-03-10T11:17:58.530Z,15.07
2023-03-10T11:28:42.030Z,15.36
2023-03-10T11:39:20.423Z,15.34
2023-03-10T11:49:52.773Z,15.62
2023-03-10T12:00:26.046Z,15.68
2023-03-10T12:10:53.930Z,15.71
2023-03-10T12:21:19.311Z,15.54
2023-03-10T12:31:50.301Z,15.67
2023-03-10T12:42:35.081Z,15.70
2023-03-10T12:53:16.184Z,15.54
2023-03-10T13:03:48.389Z,15.24
2023-03-10T13:14:17.711Z,15.04
2023-03-10T13:24:43.376Z,14.98
2023-03-10T13:35:25.354Z,14.90
2023-03-10T13:45:57.316Z,14.77
2023-03-10T13:56:26.512Z,14.69
2023-03-10T14:07:10.294Z,14.67
2023-03-10T14:17:37.777Z,14.68
2023-03-10T14:38:39.554Z,14.64
2023-03-10T14:49:07.019Z,14.66
2023-03-10T14:59:33.205Z,14.72
2023-03-10T15:10:10.565Z,14.69
2023-03-10T15:20:37.223Z,14.65
2023-03-10T15:31:03.089Z,14.58
2023-03-10T15:41:28.745Z,14.48
2023-03-10T15:51:54.592Z,14.30
2023-03-10T16:02:20.525Z,14.18
2023-03-10T16:12:46.362Z,14.03
2023-03-10T16:23:12.181Z,13.94
2023-03-10T16:33:38.152Z,13.87
2023-03-10T16:44:06.683Z,13.73
2023-03-10T16:54:32.053Z,13.52
2023-03-10T17:04:57.920Z,13.04
2023-03-10T17:15:23.686Z,12.69
2023-03-10T17:25:49.165Z,12.40
2023-03-10T17:36:16.913Z,12.23
2023-03-10T17:46:42.847Z,12.03
2023-03-10T17:57:08.850Z,11.86
2023-03-10T18:07:35.122Z,11.70
2023-03-10T18:18:01.339Z,11.54
2023-03-10T18:28:27.122Z,11.37
2023-03-10T18:38:53.922Z,11.22
2023-03-10T18:49:19.491Z,11.08
2023-03-10T18:59:45.508Z,11.02
2023-03-10T19:10:15.628Z,11.02
2023-03-10T19:20:41.201Z,10.98
2023-03-10T19:31:11.516Z,10.91
2023-03-10T19:41:37.373Z,10.83
2023-03-10T19:52:03.922Z,10.83
2023-03-10T20:02:30.764Z,10.83
2023-03-10T20:12:57.455Z,10.80
2023-03-10T20:23:23.256Z,10.72
2023-03-10T20:33:48.884Z,10.71
2023-03-10T20:44:14.718Z,10.88
2023-03-10T20:54:40.050Z,11.05
2023-03-10T21:05:06.486Z,10.86
2023-03-10T21:15:33.047Z,10.70
2023-03-10T21:25:59.681Z,10.61
2023-03-10T21:36:26.717Z,10.53
2023-03-10T21:46:52.649Z,10.50
2023-03-10T21:57:18.947Z,10.54
2023-03-10T22:07:44.659Z,10.53
2023-03-10T22:18:10.212Z,10.53
2023-03-10T22:28:36.065Z,10.55
2023-03-10T22:39:02.349Z,10.51
2023-03-10T22:49:27.901Z,10.40
2023-03-10T22:59:53.352Z,10.31
2023-03-10T23:10:22.564Z,10.15
2023-03-10T23:20:50.183Z,10.02
2023-03-10T23:31:17.170Z,9.91
2023-03-10T23:41:51.651Z,9.85
2023-03-10T23:52:17.361Z,9.88
